No particular awareness of the weather is required.    There are no Weather-warnings


Meteo18 Weather Cam more information Meteo18 Weather Cam


Thunder radar more information blitzortung!


Rain radar more information rain snow radar


Visit our other weather sites:

Template documentation
and downloads

And another site



Weather Underground History page Text

Daily Summary for February 22, 2018 Units:  Both    English   Metric
« Previous Day
Next Day »
Daily Weekly Monthly Yearly Custom
  High: Low: Average:
Temperature: TemperatureC °F /  -17.8 °C -2.3 °F /  -19.1 °C 0.8 °F /  -17.3 °C
Dew Point: DewpointC °F /  -17.8 °C -5.8 °F /  -21 °C -3.6 °F /  -19.8 °C
Humidity: Humidity % 58 % 74 %
Wind Speed: WindSpeedKMH mph /  0 km/h - 13.9 mph /  22.4 km/h
Wind Gust: WindSpeedGustKMH mph /  0 km/h - -
Wind:- - ESE
Pressure: PressurehPa in /  0 hPa 1012.8 in /  34293.4 hPa -
Precipitation: 0.0 in /  0 mm    
Historical Graphs
 
 
Tabular Data for February 22, 2018
Time Temperature Dew Point Pressure Wind Wind Speed Wind Gust Humidity Rainfall Rate (Hourly)
TemperatureC °F /  -17.8 °C DewpointC °F /  -17.8 °C PressurehPa in /  0 hPa Calm     Humidity % HourlyPrecipMM in /  0 mm
00:00 0.2 °F /  -17.7 °C -1.6 °F /  -18.7 °C 1016.8 in /  34428.8 hPa NNW 6.4 mph /  10.3 km/h 19.3 mph /  31.1 km/h 88 % 0.0 in /  0 mm
00:06 0.2 °F /  -17.7 °C -1.6 °F /  -18.7 °C 1016.8 in /  34428.8 hPa North 24.1 mph /  38.8 km/h 24.1 mph /  38.8 km/h 88 % 0.0 in /  0 mm
00:12 0.1 °F /  -17.7 °C -1.7 °F /  -18.7 °C 1016.8 in /  34428.8 hPa NE 13.0 mph /  20.9 km/h 17.7 mph /  28.5 km/h 88 % 0.0 in /  0 mm
00:18 0.1 °F /  -17.7 °C -1.7 °F /  -18.7 °C 1016.8 in /  34428.8 hPa NE 11.1 mph /  17.9 km/h 25.7 mph /  41.4 km/h 88 % 0.0 in /  0 mm
00:24 0.2 °F /  -17.7 °C -1.7 °F /  -18.7 °C 1016.8 in /  34428.8 hPa NW 1.4 mph /  2.3 km/h 22.5 mph /  36.2 km/h 87 % 0.0 in /  0 mm
00:30 0.1 °F /  -17.7 °C -1.7 °F /  -18.7 °C 1016.8 in /  34428.8 hPa NNE 16.3 mph /  26.2 km/h 27.4 mph /  44.1 km/h 88 % 0.0 in /  0 mm
00:36 0.1 °F /  -17.7 °C -1.8 °F /  -18.8 °C 1016.8 in /  34428.8 hPa NE 9.7 mph /  15.6 km/h 20.9 mph /  33.6 km/h 87 % 0.0 in /  0 mm
00:42 0.0 °F /  -17.8 °C -1.9 °F /  -18.8 °C 1016.8 in /  34428.8 hPa NNE 14.3 mph /  23 km/h 19.3 mph /  31.1 km/h 87 % 0.0 in /  0 mm
00:48 -0.1 °F /  -17.8 °C -2.0 °F /  -18.9 °C 1016.8 in /  34428.8 hPa NNE 11.1 mph /  17.9 km/h 19.3 mph /  31.1 km/h 87 % 0.0 in /  0 mm
00:54 -0.1 °F /  -17.8 °C -2.0 °F /  -18.9 °C 1016.5 in /  34418.7 hPa North 13.0 mph /  20.9 km/h 19.3 mph /  31.1 km/h 87 % 0.0 in /  0 mm
01:00 -0.1 °F /  -17.8 °C -2.0 °F /  -18.9 °C 1016.5 in /  34418.7 hPa NE 11.1 mph /  17.9 km/h 14.5 mph /  23.3 km/h 87 % 0.0 in /  0 mm
01:06 -0.1 °F /  -17.8 °C -2.0 °F /  -18.9 °C 1016.5 in /  34418.7 hPa NNE 7.9 mph /  12.7 km/h 17.7 mph /  28.5 km/h 87 % 0.0 in /  0 mm
01:12 -0.1 °F /  -17.8 °C -2.0 °F /  -18.9 °C 1016.5 in /  34418.7 hPa NNW 20.9 mph /  33.6 km/h 24.1 mph /  38.8 km/h 87 % 0.0 in /  0 mm
01:18 -0.1 °F /  -17.8 °C -2.2 °F /  -19 °C 1016.5 in /  34418.7 hPa NNE 11.1 mph /  17.9 km/h 22.5 mph /  36.2 km/h 86 % 0.0 in /  0 mm
01:24 -0.2 °F /  -17.9 °C -2.3 °F /  -19.1 °C 1016.5 in /  34418.7 hPa NNE 9.7 mph /  15.6 km/h 17.7 mph /  28.5 km/h 86 % 0.0 in /  0 mm
01:30 -0.2 °F /  -17.9 °C -2.1 °F /  -18.9 °C 1016.1 in /  34405.1 hPa North 6.4 mph /  10.3 km/h 20.9 mph /  33.6 km/h 87 % 0.0 in /  0 mm
01:36 -0.2 °F /  -17.9 °C -2.1 °F /  -18.9 °C 1016.5 in /  34418.7 hPa NNE 9.7 mph /  15.6 km/h 16.1 mph /  25.9 km/h 87 % 0.0 in /  0 mm
01:42 -0.4 °F /  -18 °C -2.3 °F /  -19.1 °C 1016.1 in /  34405.1 hPa North 11.1 mph /  17.9 km/h 19.3 mph /  31.1 km/h 87 % 0.0 in /  0 mm
01:48 -0.4 °F /  -18 °C -2.1 °F /  -18.9 °C 1016.1 in /  34405.1 hPa NNE 11.1 mph /  17.9 km/h 24.1 mph /  38.8 km/h 88 % 0.0 in /  0 mm
01:54 -0.5 °F /  -18.1 °C -2.2 °F /  -19 °C 1016.1 in /  34405.1 hPa NNE 13.0 mph /  20.9 km/h 24.1 mph /  38.8 km/h 88 % 0.0 in /  0 mm
02:00 -0.6 °F /  -18.1 °C -2.3 °F /  -19.1 °C 1016.1 in /  34405.1 hPa NNE 9.7 mph /  15.6 km/h 27.4 mph /  44.1 km/h 88 % 0.0 in /  0 mm
02:06 -0.6 °F /  -18.1 °C -2.3 °F /  -19.1 °C 1016.1 in /  34405.1 hPa NE 14.3 mph /  23 km/h 17.7 mph /  28.5 km/h 88 % 0.0 in /  0 mm
02:12 -0.7 °F /  -18.2 °C -2.4 °F /  -19.1 °C 1016.1 in /  34405.1 hPa NE 25.9 mph /  41.7 km/h 25.9 mph /  41.7 km/h 88 % 0.0 in /  0 mm
02:18 -0.7 °F /  -18.2 °C -2.4 °F /  -19.1 °C 1016.1 in /  34405.1 hPa NNE 13.0 mph /  20.9 km/h 19.3 mph /  31.1 km/h 88 % 0.0 in /  0 mm
02:24 -0.8 °F /  -18.2 °C -2.5 °F /  -19.2 °C 1016.1 in /  34405.1 hPa NNE 13.0 mph /  20.9 km/h 25.7 mph /  41.4 km/h 88 % 0.0 in /  0 mm
02:30 -0.8 °F /  -18.2 °C -2.5 °F /  -19.2 °C 1016.1 in /  34405.1 hPa NNW 13.0 mph /  20.9 km/h 22.5 mph /  36.2 km/h 88 % 0.0 in /  0 mm
02:36 -0.8 °F /  -18.2 °C -2.5 °F /  -19.2 °C 1016.1 in /  34405.1 hPa NE 9.7 mph /  15.6 km/h 17.7 mph /  28.5 km/h 88 % 0.0 in /  0 mm
02:42 -0.9 °F /  -18.3 °C -2.6 °F /  -19.2 °C 1016.1 in /  34405.1 hPa NNW 4.7 mph /  7.6 km/h 19.3 mph /  31.1 km/h 88 % 0.0 in /  0 mm
02:48 -0.9 °F /  -18.3 °C -2.6 °F /  -19.2 °C 1015.8 in /  34395 hPa NW 6.4 mph /  10.3 km/h 14.5 mph /  23.3 km/h 88 % 0.0 in /  0 mm
02:54 -0.9 °F /  -18.3 °C -2.6 °F /  -19.2 °C 1015.8 in /  34395 hPa NNE 13.0 mph /  20.9 km/h 20.9 mph /  33.6 km/h 88 % 0.0 in /  0 mm
03:00 -0.9 °F /  -18.3 °C -2.6 °F /  -19.2 °C 1015.8 in /  34395 hPa North 22.7 mph /  36.5 km/h 22.7 mph /  36.5 km/h 88 % 0.0 in /  0 mm
03:06 -0.9 °F /  -18.3 °C -2.8 °F /  -19.3 °C 1015.8 in /  34395 hPa NE 14.3 mph /  23 km/h 16.1 mph /  25.9 km/h 87 % 0.0 in /  0 mm
03:12 -0.9 °F /  -18.3 °C -2.8 °F /  -19.3 °C 1015.8 in /  34395 hPa NNE 11.1 mph /  17.9 km/h 24.1 mph /  38.8 km/h 87 % 0.0 in /  0 mm
03:20 -0.9 °F /  -18.3 °C -2.8 °F /  -19.3 °C 1015.8 in /  34395 hPa North 7.9 mph /  12.7 km/h 19.3 mph /  31.1 km/h 87 % 0.0 in /  0 mm
03:26 -0.9 °F /  -18.3 °C -2.8 °F /  -19.3 °C 1015.8 in /  34395 hPa NNW 7.9 mph /  12.7 km/h 20.9 mph /  33.6 km/h 87 % 0.0 in /  0 mm
03:32 -1.0 °F /  -18.3 °C -2.9 °F /  -19.4 °C 1015.8 in /  34395 hPa NE 16.3 mph /  26.2 km/h 19.3 mph /  31.1 km/h 87 % 0.0 in /  0 mm
03:38 -1.0 °F /  -18.3 °C -2.9 °F /  -19.4 °C 1015.5 in /  34384.8 hPa NW 4.7 mph /  7.6 km/h 16.1 mph /  25.9 km/h 87 % 0.0 in /  0 mm
03:44 -1.0 °F /  -18.3 °C -2.9 °F /  -19.4 °C 1015.5 in /  34384.8 hPa NNW 14.3 mph /  23 km/h 19.3 mph /  31.1 km/h 87 % 0.0 in /  0 mm
03:50 -1.1 °F /  -18.4 °C -3.0 °F /  -19.4 °C 1015.5 in /  34384.8 hPa NNW 7.9 mph /  12.7 km/h 19.3 mph /  31.1 km/h 87 % 0.0 in /  0 mm
03:56 -1.1 °F /  -18.4 °C -3.0 °F /  -19.4 °C 1015.5 in /  34384.8 hPa NNE 16.3 mph /  26.2 km/h 19.3 mph /  31.1 km/h 87 % 0.0 in /  0 mm
04:02 -1.2 °F /  -18.4 °C -3.1 °F /  -19.5 °C 1015.5 in /  34384.8 hPa NNW 4.7 mph /  7.6 km/h 17.7 mph /  28.5 km/h 87 % 0.0 in /  0 mm
04:08 -1.2 °F /  -18.4 °C -3.1 °F /  -19.5 °C 1015.5 in /  34384.8 hPa NNW 6.4 mph /  10.3 km/h 14.5 mph /  23.3 km/h 87 % 0.0 in /  0 mm
04:14 -1.3 °F /  -18.5 °C -3.2 °F /  -19.6 °C 1015.1 in /  34371.3 hPa NNW 6.4 mph /  10.3 km/h 14.5 mph /  23.3 km/h 87 % 0.0 in /  0 mm
04:20 -1.3 °F /  -18.5 °C -3.0 °F /  -19.4 °C 1015.1 in /  34371.3 hPa NNE 7.9 mph /  12.7 km/h 14.5 mph /  23.3 km/h 88 % 0.0 in /  0 mm
04:26 -1.4 °F /  -18.6 °C -3.3 °F /  -19.6 °C 1015.1 in /  34371.3 hPa NNE 4.7 mph /  7.6 km/h 17.7 mph /  28.5 km/h 87 % 0.0 in /  0 mm
04:32 -1.4 °F /  -18.6 °C -3.1 °F /  -19.5 °C 1015.1 in /  34371.3 hPa NNW 6.4 mph /  10.3 km/h 12.9 mph /  20.8 km/h 88 % 0.0 in /  0 mm
04:38 -1.4 °F /  -18.6 °C -3.1 °F /  -19.5 °C 1015.1 in /  34371.3 hPa North 13.0 mph /  20.9 km/h 17.7 mph /  28.5 km/h 88 % 0.0 in /  0 mm
04:44 -1.5 °F /  -18.6 °C -3.2 °F /  -19.6 °C 1015.1 in /  34371.3 hPa NNW 9.7 mph /  15.6 km/h 11.3 mph /  18.2 km/h 88 % 0.0 in /  0 mm
04:50 -1.6 °F /  -18.7 °C -3.3 °F /  -19.6 °C 1015.1 in /  34371.3 hPa North 11.1 mph /  17.9 km/h 16.1 mph /  25.9 km/h 88 % 0.0 in /  0 mm
04:56 -1.6 °F /  -18.7 °C -3.3 °F /  -19.6 °C 1015.1 in /  34371.3 hPa NNE 11.1 mph /  17.9 km/h 19.3 mph /  31.1 km/h 88 % 0.0 in /  0 mm
05:03 -1.7 °F /  -18.7 °C -3.4 °F /  -19.7 °C 1015.1 in /  34371.3 hPa North 6.4 mph /  10.3 km/h 17.7 mph /  28.5 km/h 88 % 0.0 in /  0 mm
05:09 -1.7 °F /  -18.7 °C -3.3 °F /  -19.6 °C 1015.1 in /  34371.3 hPa North 11.1 mph /  17.9 km/h 16.1 mph /  25.9 km/h 89 % 0.0 in /  0 mm
05:15 -1.7 °F /  -18.7 °C -3.3 °F /  -19.6 °C 1015.1 in /  34371.3 hPa NW 7.9 mph /  12.7 km/h 22.5 mph /  36.2 km/h 89 % 0.0 in /  0 mm
05:21 -1.7 °F /  -18.7 °C -3.4 °F /  -19.7 °C 1015.1 in /  34371.3 hPa NNE 13.0 mph /  20.9 km/h 22.5 mph /  36.2 km/h 88 % 0.0 in /  0 mm
05:27 -1.7 °F /  -18.7 °C -3.4 °F /  -19.7 °C 1015.1 in /  34371.3 hPa North 13.0 mph /  20.9 km/h 17.7 mph /  28.5 km/h 88 % 0.0 in /  0 mm
05:33 -1.7 °F /  -18.7 °C -3.4 °F /  -19.7 °C 1015.1 in /  34371.3 hPa NW 11.1 mph /  17.9 km/h 19.3 mph /  31.1 km/h 88 % 0.0 in /  0 mm
05:39 -1.7 °F /  -18.7 °C -3.4 °F /  -19.7 °C 1015.1 in /  34371.3 hPa North 14.3 mph /  23 km/h 17.7 mph /  28.5 km/h 88 % 0.0 in /  0 mm
05:45 -1.7 °F /  -18.7 °C -3.4 °F /  -19.7 °C 1015.1 in /  34371.3 hPa North 6.4 mph /  10.3 km/h 20.9 mph /  33.6 km/h 88 % 0.0 in /  0 mm
06:03 -1.8 °F /  -18.8 °C -3.4 °F /  -19.7 °C 1015.1 in /  34371.3 hPa NNE 4.7 mph /  7.6 km/h 12.9 mph /  20.8 km/h 89 % 0.0 in /  0 mm
06:09 -1.8 °F /  -18.8 °C -3.4 °F /  -19.7 °C 1015.1 in /  34371.3 hPa North 9.7 mph /  15.6 km/h 12.9 mph /  20.8 km/h 89 % 0.0 in /  0 mm
06:15 -1.9 °F /  -18.8 °C -3.5 °F /  -19.7 °C 1015.1 in /  34371.3 hPa NNW 11.1 mph /  17.9 km/h 14.5 mph /  23.3 km/h 89 % 0.0 in /  0 mm
06:21 -1.9 °F /  -18.8 °C -3.5 °F /  -19.7 °C 1015.1 in /  34371.3 hPa North 9.7 mph /  15.6 km/h 17.7 mph /  28.5 km/h 89 % 0.0 in /  0 mm
06:27 -2.0 °F /  -18.9 °C -3.6 °F /  -19.8 °C 1015.1 in /  34371.3 hPa North 11.1 mph /  17.9 km/h 25.7 mph /  41.4 km/h 89 % 0.0 in /  0 mm
06:33 -2.0 °F /  -18.9 °C -3.6 °F /  -19.8 °C 1015.1 in /  34371.3 hPa NE 7.9 mph /  12.7 km/h 19.3 mph /  31.1 km/h 89 % 0.0 in /  0 mm
06:39 -2.1 °F /  -18.9 °C -3.7 °F /  -19.8 °C 1015.1 in /  34371.3 hPa NNE 7.9 mph /  12.7 km/h 20.9 mph /  33.6 km/h 89 % 0.0 in /  0 mm
06:45 -2.1 °F /  -18.9 °C -3.7 °F /  -19.8 °C 1015.1 in /  34371.3 hPa NE 7.9 mph /  12.7 km/h 12.9 mph /  20.8 km/h 89 % 0.0 in /  0 mm
06:51 -2.1 °F /  -18.9 °C -3.7 °F /  -19.8 °C 1015.1 in /  34371.3 hPa NNE 25.9 mph /  41.7 km/h 25.9 mph /  41.7 km/h 89 % 0.0 in /  0 mm
06:57 -2.1 °F /  -18.9 °C -3.7 °F /  -19.8 °C 1015.1 in /  34371.3 hPa NE 14.3 mph /  23 km/h 19.3 mph /  31.1 km/h 89 % 0.0 in /  0 mm
07:03 -2.2 °F /  -19 °C -3.8 °F /  -19.9 °C 1015.1 in /  34371.3 hPa North 4.7 mph /  7.6 km/h 12.9 mph /  20.8 km/h 89 % 0.0 in /  0 mm
07:09 -2.2 °F /  -19 °C -3.8 °F /  -19.9 °C 1015.1 in /  34371.3 hPa North 3.2 mph /  5.1 km/h 20.9 mph /  33.6 km/h 89 % 0.0 in /  0 mm
07:15 -2.2 °F /  -19 °C -3.8 °F /  -19.9 °C 1014.8 in /  34361.1 hPa NNW 20.9 mph /  33.6 km/h 20.9 mph /  33.6 km/h 89 % 0.0 in /  0 mm
07:21 -2.2 °F /  -19 °C -3.8 °F /  -19.9 °C 1014.8 in /  34361.1 hPa NNE 4.7 mph /  7.6 km/h 17.7 mph /  28.5 km/h 89 % 0.0 in /  0 mm
07:27 -2.2 °F /  -19 °C -3.8 °F /  -19.9 °C 1014.8 in /  34361.1 hPa North 4.7 mph /  7.6 km/h 19.3 mph /  31.1 km/h 89 % 0.0 in /  0 mm
07:33 -2.2 °F /  -19 °C -3.9 °F /  -19.9 °C 1014.8 in /  34361.1 hPa NNE 6.4 mph /  10.3 km/h 14.5 mph /  23.3 km/h 88 % 0.0 in /  0 mm
07:39 -2.3 °F /  -19.1 °C -4.0 °F /  -20 °C 1014.8 in /  34361.1 hPa North 11.1 mph /  17.9 km/h 11.3 mph /  18.2 km/h 88 % 0.0 in /  0 mm
07:45 -2.3 °F /  -19.1 °C -4.0 °F /  -20 °C 1014.8 in /  34361.1 hPa NNW 14.3 mph /  23 km/h 22.5 mph /  36.2 km/h 88 % 0.0 in /  0 mm
07:51 -2.2 °F /  -19 °C -3.9 °F /  -19.9 °C 1014.8 in /  34361.1 hPa NNW 13.0 mph /  20.9 km/h 22.5 mph /  36.2 km/h 88 % 0.0 in /  0 mm
07:57 -2.2 °F /  -19 °C -3.9 °F /  -19.9 °C 1014.8 in /  34361.1 hPa NNW 7.9 mph /  12.7 km/h 14.5 mph /  23.3 km/h 88 % 0.0 in /  0 mm
08:03 -2.2 °F /  -19 °C -3.9 °F /  -19.9 °C 1014.8 in /  34361.1 hPa NE 4.7 mph /  7.6 km/h 12.9 mph /  20.8 km/h 88 % 0.0 in /  0 mm
08:09 -2.2 °F /  -19 °C -3.9 °F /  -19.9 °C 1014.8 in /  34361.1 hPa North 9.7 mph /  15.6 km/h 14.5 mph /  23.3 km/h 88 % 0.0 in /  0 mm
08:15 -2.2 °F /  -19 °C -3.9 °F /  -19.9 °C 1014.8 in /  34361.1 hPa NNE 14.3 mph /  23 km/h 22.5 mph /  36.2 km/h 88 % 0.0 in /  0 mm
08:21 -2.2 °F /  -19 °C -3.9 °F /  -19.9 °C 1014.8 in /  34361.1 hPa North 13.0 mph /  20.9 km/h 13.0 mph /  20.9 km/h 88 % 0.0 in /  0 mm
08:27 -2.1 °F /  -18.9 °C -3.8 °F /  -19.9 °C 1015.1 in /  34371.3 hPa NNE 6.4 mph /  10.3 km/h 17.7 mph /  28.5 km/h 88 % 0.0 in /  0 mm
08:33 -2.1 °F /  -18.9 °C -4.0 °F /  -20 °C 1014.8 in /  34361.1 hPa NNE 11.1 mph /  17.9 km/h 12.9 mph /  20.8 km/h 87 % 0.0 in /  0 mm
08:39 -1.9 °F /  -18.8 °C -3.8 °F /  -19.9 °C 1015.1 in /  34371.3 hPa NNE 17.7 mph /  28.5 km/h 19.3 mph /  31.1 km/h 87 % 0.0 in /  0 mm
08:47 -1.8 °F /  -18.8 °C -3.7 °F /  -19.8 °C 1014.8 in /  34361.1 hPa North 14.3 mph /  23 km/h 19.3 mph /  31.1 km/h 87 % 0.0 in /  0 mm
08:53 -1.7 °F /  -18.7 °C -3.6 °F /  -19.8 °C 1015.1 in /  34371.3 hPa NE 4.7 mph /  7.6 km/h 12.9 mph /  20.8 km/h 87 % 0.0 in /  0 mm
08:59 -1.7 °F /  -18.7 °C -3.7 °F /  -19.8 °C 1015.1 in /  34371.3 hPa NNE 19.5 mph /  31.4 km/h 25.7 mph /  41.4 km/h 86 % 0.0 in /  0 mm
09:05 -1.6 °F /  -18.7 °C -3.6 °F /  -19.8 °C 1015.1 in /  34371.3 hPa NE 13.0 mph /  20.9 km/h 20.9 mph /  33.6 km/h 86 % 0.0 in /  0 mm
09:11 -1.5 °F /  -18.6 °C -3.5 °F /  -19.7 °C 1015.1 in /  34371.3 hPa North 14.3 mph /  23 km/h 24.1 mph /  38.8 km/h 86 % 0.0 in /  0 mm
09:17 -1.4 °F /  -18.6 °C -3.4 °F /  -19.7 °C 1015.1 in /  34371.3 hPa NNW 16.3 mph /  26.2 km/h 27.4 mph /  44.1 km/h 86 % 0.0 in /  0 mm
09:23 -1.3 °F /  -18.5 °C -3.5 °F /  -19.7 °C 1014.8 in /  34361.1 hPa NE 9.7 mph /  15.6 km/h 22.5 mph /  36.2 km/h 85 % 0.0 in /  0 mm
09:29 -1.2 °F /  -18.4 °C -3.4 °F /  -19.7 °C 1014.8 in /  34361.1 hPa North 11.1 mph /  17.9 km/h 16.1 mph /  25.9 km/h 85 % 0.0 in /  0 mm
09:35 -1.1 °F /  -18.4 °C -3.5 °F /  -19.7 °C 1014.8 in /  34361.1 hPa North 17.7 mph /  28.5 km/h 22.5 mph /  36.2 km/h 84 % 0.0 in /  0 mm
09:41 -1.0 °F /  -18.3 °C -3.5 °F /  -19.7 °C 1014.8 in /  34361.1 hPa NNE 6.4 mph /  10.3 km/h 27.4 mph /  44.1 km/h 83 % 0.0 in /  0 mm
09:47 -0.9 °F /  -18.3 °C -3.4 °F /  -19.7 °C 1014.8 in /  34361.1 hPa NE 13.0 mph /  20.9 km/h 25.7 mph /  41.4 km/h 83 % 0.0 in /  0 mm
09:53 -0.8 °F /  -18.2 °C -3.5 °F /  -19.7 °C 1014.8 in /  34361.1 hPa NNW 6.4 mph /  10.3 km/h 19.3 mph /  31.1 km/h 82 % 0.0 in /  0 mm
10:01 -0.7 °F /  -18.2 °C -3.6 °F /  -19.8 °C 1014.8 in /  34361.1 hPa NW 3.2 mph /  5.1 km/h 24.1 mph /  38.8 km/h 81 % 0.0 in /  0 mm
10:07 -0.6 °F /  -18.1 °C -3.5 °F /  -19.7 °C 1014.8 in /  34361.1 hPa NNE 13.0 mph /  20.9 km/h 24.1 mph /  38.8 km/h 81 % 0.0 in /  0 mm
10:13 -0.6 °F /  -18.1 °C -3.5 °F /  -19.7 °C 1014.8 in /  34361.1 hPa ENE 11.1 mph /  17.9 km/h 19.3 mph /  31.1 km/h 81 % 0.0 in /  0 mm
10:19 -0.4 °F /  -18 °C -3.3 °F /  -19.6 °C 1014.8 in /  34361.1 hPa NE 13.0 mph /  20.9 km/h 22.5 mph /  36.2 km/h 81 % 0.0 in /  0 mm
10:25 -0.4 °F /  -18 °C -3.4 °F /  -19.7 °C 1014.8 in /  34361.1 hPa NNE 7.9 mph /  12.7 km/h 20.9 mph /  33.6 km/h 80 % 0.0 in /  0 mm
10:31 -0.2 °F /  -17.9 °C -3.4 °F /  -19.7 °C 1014.8 in /  34361.1 hPa NE 20.9 mph /  33.6 km/h 29.0 mph /  46.7 km/h 79 % 0.0 in /  0 mm
10:37 -0.2 °F /  -17.9 °C -3.4 °F /  -19.7 °C 1014.8 in /  34361.1 hPa North 13.0 mph /  20.9 km/h 29.0 mph /  46.7 km/h 79 % 0.0 in /  0 mm
10:43 -0.1 °F /  -17.8 °C -3.3 °F /  -19.6 °C 1014.8 in /  34361.1 hPa North 11.1 mph /  17.9 km/h 25.7 mph /  41.4 km/h 79 % 0.0 in /  0 mm
10:49 0.2 °F /  -17.7 °C -3.2 °F /  -19.6 °C 1014.8 in /  34361.1 hPa NNE 25.9 mph /  41.7 km/h 25.9 mph /  41.7 km/h 78 % 0.0 in /  0 mm
10:55 0.2 °F /  -17.7 °C -3.2 °F /  -19.6 °C 1014.8 in /  34361.1 hPa North 17.7 mph /  28.5 km/h 19.3 mph /  31.1 km/h 78 % 0.0 in /  0 mm
11:01 0.4 °F /  -17.6 °C -3.2 °F /  -19.6 °C 1014.8 in /  34361.1 hPa WNW 3.2 mph /  5.1 km/h 22.5 mph /  36.2 km/h 77 % 0.0 in /  0 mm
11:07 0.5 °F /  -17.5 °C -3.1 °F /  -19.5 °C 1014.4 in /  34347.6 hPa North 13.0 mph /  20.9 km/h 24.1 mph /  38.8 km/h 77 % 0.0 in /  0 mm
11:13 0.5 °F /  -17.5 °C -3.2 °F /  -19.6 °C 1014.4 in /  34347.6 hPa ENE 14.3 mph /  23 km/h 25.7 mph /  41.4 km/h 76 % 0.0 in /  0 mm
11:19 0.7 °F /  -17.4 °C -3.2 °F /  -19.6 °C 1014.4 in /  34347.6 hPa NE 6.4 mph /  10.3 km/h 25.7 mph /  41.4 km/h 75 % 0.0 in /  0 mm
11:25 0.8 °F /  -17.3 °C -2.9 °F /  -19.4 °C 1014.4 in /  34347.6 hPa North 11.1 mph /  17.9 km/h 16.1 mph /  25.9 km/h 76 % 0.0 in /  0 mm
11:31 0.9 °F /  -17.3 °C -3.4 °F /  -19.7 °C 1014.4 in /  34347.6 hPa NE 22.7 mph /  36.5 km/h 33.8 mph /  54.4 km/h 73 % 0.0 in /  0 mm
11:37 1.0 °F /  -17.2 °C -3.1 °F /  -19.5 °C 1014.4 in /  34347.6 hPa NNE 17.7 mph /  28.5 km/h 22.5 mph /  36.2 km/h 74 % 0.0 in /  0 mm
11:43 1.1 °F /  -17.2 °C -3.4 °F /  -19.7 °C 1014.4 in /  34347.6 hPa North 22.7 mph /  36.5 km/h 30.6 mph /  49.2 km/h 72 % 0.0 in /  0 mm
11:49 1.2 °F /  -17.1 °C -3.1 °F /  -19.5 °C 1014.4 in /  34347.6 hPa NNE 9.7 mph /  15.6 km/h 20.9 mph /  33.6 km/h 73 % 0.0 in /  0 mm
12:01 1.3 °F /  -17.1 °C -3.4 °F /  -19.7 °C 1014.4 in /  34347.6 hPa North 17.7 mph /  28.5 km/h 32.2 mph /  51.8 km/h 71 % 0.0 in /  0 mm
12:07 1.4 °F /  -17 °C -3.5 °F /  -19.7 °C 1014.4 in /  34347.6 hPa NE 20.9 mph /  33.6 km/h 33.8 mph /  54.4 km/h 70 % 0.0 in /  0 mm
12:13 1.5 °F /  -16.9 °C -3.2 °F /  -19.6 °C 1014.4 in /  34347.6 hPa NNE 9.7 mph /  15.6 km/h 22.5 mph /  36.2 km/h 71 % 0.0 in /  0 mm
12:19 1.7 °F /  -16.8 °C -3.2 °F /  -19.6 °C 1014.4 in /  34347.6 hPa ENE 7.9 mph /  12.7 km/h 32.2 mph /  51.8 km/h 70 % 0.0 in /  0 mm
12:25 1.8 °F /  -16.8 °C -3.5 °F /  -19.7 °C 1014.1 in /  34337.4 hPa NNE 22.7 mph /  36.5 km/h 27.4 mph /  44.1 km/h 68 % 0.0 in /  0 mm
12:31 1.9 °F /  -16.7 °C -3.4 °F /  -19.7 °C 1014.1 in /  34337.4 hPa NE 17.7 mph /  28.5 km/h 27.4 mph /  44.1 km/h 68 % 0.0 in /  0 mm
12:37 2.0 °F /  -16.7 °C -3.5 °F /  -19.7 °C 1014.1 in /  34337.4 hPa NE 17.7 mph /  28.5 km/h 27.4 mph /  44.1 km/h 67 % 0.0 in /  0 mm
12:43 2.2 °F /  -16.6 °C -3.1 °F /  -19.5 °C 1013.8 in /  34327.3 hPa NE 14.3 mph /  23 km/h 30.6 mph /  49.2 km/h 68 % 0.0 in /  0 mm
12:49 2.3 °F /  -16.5 °C -3.2 °F /  -19.6 °C 1013.8 in /  34327.3 hPa NNE 27.4 mph /  44.1 km/h 32.2 mph /  51.8 km/h 67 % 0.0 in /  0 mm
12:55 2.2 °F /  -16.6 °C -3.3 °F /  -19.6 °C 1013.8 in /  34327.3 hPa NNW 20.9 mph /  33.6 km/h 35.4 mph /  57 km/h 67 % 0.0 in /  0 mm
13:02 2.3 °F /  -16.5 °C -3.0 °F /  -19.4 °C 1013.8 in /  34327.3 hPa NE 13.0 mph /  20.9 km/h 22.5 mph /  36.2 km/h 68 % 0.0 in /  0 mm
13:08 2.6 °F /  -16.3 °C -2.9 °F /  -19.4 °C 1014.1 in /  34337.4 hPa NW 7.9 mph /  12.7 km/h 24.1 mph /  38.8 km/h 67 % 0.0 in /  0 mm
13:13 2.7 °F /  -16.3 °C -2.8 °F /  -19.3 °C 1014.1 in /  34337.4 hPa NE 6.4 mph /  10.3 km/h 17.7 mph /  28.5 km/h 67 % 0.0 in /  0 mm
13:19 2.8 °F /  -16.2 °C -3.3 °F /  -19.6 °C 1013.8 in /  34327.3 hPa East 9.7 mph /  15.6 km/h 35.4 mph /  57 km/h 64 % 0.0 in /  0 mm
13:26 2.8 °F /  -16.2 °C -3.3 °F /  -19.6 °C 1013.8 in /  34327.3 hPa ENE 14.3 mph /  23 km/h 32.2 mph /  51.8 km/h 64 % 0.0 in /  0 mm
13:31 2.9 °F /  -16.2 °C -2.6 °F /  -19.2 °C 1013.8 in /  34327.3 hPa NNW 7.9 mph /  12.7 km/h 20.9 mph /  33.6 km/h 67 % 0.0 in /  0 mm
13:38 2.9 °F /  -16.2 °C -2.8 °F /  -19.3 °C 1013.8 in /  34327.3 hPa NW 24.1 mph /  38.8 km/h 27.4 mph /  44.1 km/h 66 % 0.0 in /  0 mm
13:44 3.0 °F /  -16.1 °C -2.9 °F /  -19.4 °C 1013.8 in /  34327.3 hPa NNE 17.7 mph /  28.5 km/h 22.5 mph /  36.2 km/h 65 % 0.0 in /  0 mm
13:50 2.9 °F /  -16.2 °C -3.0 °F /  -19.4 °C 1013.8 in /  34327.3 hPa NNW 17.7 mph /  28.5 km/h 22.5 mph /  36.2 km/h 65 % 0.0 in /  0 mm
13:56 3.1 °F /  -16.1 °C -2.8 °F /  -19.3 °C 1013.4 in /  34313.7 hPa North 24.1 mph /  38.8 km/h 29.0 mph /  46.7 km/h 65 % 0.0 in /  0 mm
14:01 3.1 °F /  -16.1 °C -3.3 °F /  -19.6 °C 1013.4 in /  34313.7 hPa NNE 20.9 mph /  33.6 km/h 33.8 mph /  54.4 km/h 63 % 0.0 in /  0 mm
14:07 3.3 °F /  -15.9 °C -2.9 °F /  -19.4 °C 1013.4 in /  34313.7 hPa NNE 16.3 mph /  26.2 km/h 32.2 mph /  51.8 km/h 64 % 0.0 in /  0 mm
14:14 3.3 °F /  -15.9 °C -3.3 °F /  -19.6 °C 1013.4 in /  34313.7 hPa NNE 19.5 mph /  31.4 km/h 30.6 mph /  49.2 km/h 62 % 0.0 in /  0 mm
14:20 3.2 °F /  -16 °C -3.8 °F /  -19.9 °C 1013.4 in /  34313.7 hPa NNE 20.9 mph /  33.6 km/h 37.0 mph /  59.5 km/h 60 % 0.0 in /  0 mm
14:26 3.3 °F /  -15.9 °C -2.9 °F /  -19.4 °C 1013.4 in /  34313.7 hPa NNE 27.4 mph /  44.1 km/h 33.8 mph /  54.4 km/h 64 % 0.0 in /  0 mm
14:32 3.3 °F /  -15.9 °C -3.1 °F /  -19.5 °C 1013.4 in /  34313.7 hPa North 25.9 mph /  41.7 km/h 33.8 mph /  54.4 km/h 63 % 0.0 in /  0 mm
14:38 3.3 °F /  -15.9 °C -3.5 °F /  -19.7 °C 1013.4 in /  34313.7 hPa NNW 16.3 mph /  26.2 km/h 35.4 mph /  57 km/h 61 % 0.0 in /  0 mm
14:43 3.4 °F /  -15.9 °C -3.0 °F /  -19.4 °C 1013.1 in /  34303.6 hPa ENE 19.5 mph /  31.4 km/h 22.5 mph /  36.2 km/h 63 % 0.0 in /  0 mm
14:49 3.4 °F /  -15.9 °C -3.4 °F /  -19.7 °C 1013.1 in /  34303.6 hPa NW 13.0 mph /  20.9 km/h 40.2 mph /  64.7 km/h 61 % 0.0 in /  0 mm
14:56 3.5 °F /  -15.8 °C -3.1 °F /  -19.5 °C 1013.1 in /  34303.6 hPa NNW 14.3 mph /  23 km/h 33.8 mph /  54.4 km/h 62 % 0.0 in /  0 mm
15:02 3.5 °F /  -15.8 °C -2.9 °F /  -19.4 °C 1013.1 in /  34303.6 hPa ENE 22.7 mph /  36.5 km/h 29.0 mph /  46.7 km/h 63 % 0.0 in /  0 mm
15:08 3.6 °F /  -15.8 °C -2.8 °F /  -19.3 °C 1013.1 in /  34303.6 hPa NNE 14.3 mph /  23 km/h 30.6 mph /  49.2 km/h 63 % 0.0 in /  0 mm
15:14 3.7 °F /  -15.7 °C -2.7 °F /  -19.3 °C 1013.1 in /  34303.6 hPa ENE 11.1 mph /  17.9 km/h 33.8 mph /  54.4 km/h 63 % 0.0 in /  0 mm
15:20 3.7 °F /  -15.7 °C -2.3 °F /  -19.1 °C 1013.1 in /  34303.6 hPa NE 19.5 mph /  31.4 km/h 19.5 mph /  31.4 km/h 65 % 0.0 in /  0 mm
15:26 3.6 °F /  -15.8 °C -3.4 °F /  -19.7 °C 1013.1 in /  34303.6 hPa NNE 24.1 mph /  38.8 km/h 33.8 mph /  54.4 km/h 60 % 0.0 in /  0 mm
15:32 3.7 °F /  -15.7 °C -2.7 °F /  -19.3 °C 1012.8 in /  34293.4 hPa NNE 24.1 mph /  38.8 km/h 27.4 mph /  44.1 km/h 63 % 0.0 in /  0 mm
15:37 3.6 °F /  -15.8 °C -3.4 °F /  -19.7 °C 1012.8 in /  34293.4 hPa NE 11.1 mph /  17.9 km/h 29.0 mph /  46.7 km/h 60 % 0.0 in /  0 mm
15:44 3.7 °F /  -15.7 °C -2.7 °F /  -19.3 °C 1013.1 in /  34303.6 hPa NNE 28.8 mph /  46.3 km/h 29.0 mph /  46.7 km/h 63 % 0.0 in /  0 mm
15:49 3.6 °F /  -15.8 °C -2.8 °F /  -19.3 °C 1012.8 in /  34293.4 hPa NNE 24.1 mph /  38.8 km/h 32.2 mph /  51.8 km/h 63 % 0.0 in /  0 mm
15:55 3.6 °F /  -15.8 °C -3.7 °F /  -19.8 °C 1013.1 in /  34303.6 hPa NE 27.4 mph /  44.1 km/h 33.8 mph /  54.4 km/h 59 % 0.0 in /  0 mm
16:02 3.7 °F /  -15.7 °C -3.1 °F /  -19.5 °C 1013.1 in /  34303.6 hPa NE 17.7 mph /  28.5 km/h 22.5 mph /  36.2 km/h 61 % 0.0 in /  0 mm
16:07 3.8 °F /  -15.7 °C -2.6 °F /  -19.2 °C 1013.1 in /  34303.6 hPa NNW 7.9 mph /  12.7 km/h 32.2 mph /  51.8 km/h 63 % 0.0 in /  0 mm
16:14 3.8 °F /  -15.7 °C -2.8 °F /  -19.3 °C 1013.1 in /  34303.6 hPa NNE 17.7 mph /  28.5 km/h 32.2 mph /  51.8 km/h 62 % 0.0 in /  0 mm
16:20 3.6 °F /  -15.8 °C -2.8 °F /  -19.3 °C 1013.1 in /  34303.6 hPa NE 19.5 mph /  31.4 km/h 29.0 mph /  46.7 km/h 63 % 0.0 in /  0 mm
16:26 3.6 °F /  -15.8 °C -2.8 °F /  -19.3 °C 1013.1 in /  34303.6 hPa NNE 19.5 mph /  31.4 km/h 29.0 mph /  46.7 km/h 63 % 0.0 in /  0 mm
16:32 3.5 °F /  -15.8 °C -2.9 °F /  -19.4 °C 1012.8 in /  34293.4 hPa NE 20.9 mph /  33.6 km/h 20.9 mph /  33.6 km/h 63 % 0.0 in /  0 mm
16:38 3.5 °F /  -15.8 °C -2.9 °F /  -19.4 °C 1013.1 in /  34303.6 hPa NE 25.9 mph /  41.7 km/h 33.8 mph /  54.4 km/h 63 % 0.0 in /  0 mm
16:44 3.5 °F /  -15.8 °C -3.1 °F /  -19.5 °C 1013.1 in /  34303.6 hPa NNW 9.7 mph /  15.6 km/h 29.0 mph /  46.7 km/h 62 % 0.0 in /  0 mm
16:50 3.4 °F /  -15.9 °C -3.9 °F /  -19.9 °C 1013.1 in /  34303.6 hPa NNE 16.3 mph /  26.2 km/h 30.6 mph /  49.2 km/h 59 % 0.0 in /  0 mm
16:56 3.4 °F /  -15.9 °C -3.9 °F /  -19.9 °C 1013.1 in /  34303.6 hPa NNE 20.9 mph /  33.6 km/h 30.6 mph /  49.2 km/h 59 % 0.0 in /  0 mm
17:02 3.3 °F /  -15.9 °C -3.7 °F /  -19.8 °C 1013.1 in /  34303.6 hPa NNE 14.3 mph /  23 km/h 20.9 mph /  33.6 km/h 60 % 0.0 in /  0 mm
17:08 3.3 °F /  -15.9 °C -3.9 °F /  -19.9 °C 1013.1 in /  34303.6 hPa NNE 14.3 mph /  23 km/h 32.2 mph /  51.8 km/h 59 % 0.0 in /  0 mm
17:14 3.3 °F /  -15.9 °C -3.7 °F /  -19.8 °C 1013.1 in /  34303.6 hPa NE 24.1 mph /  38.8 km/h 29.0 mph /  46.7 km/h 60 % 0.0 in /  0 mm
17:20 3.2 °F /  -16 °C -4.0 °F /  -20 °C 1013.1 in /  34303.6 hPa NE 17.7 mph /  28.5 km/h 32.2 mph /  51.8 km/h 59 % 0.0 in /  0 mm
17:26 3.1 °F /  -16.1 °C -4.1 °F /  -20.1 °C 1013.1 in /  34303.6 hPa NW 11.1 mph /  17.9 km/h 32.2 mph /  51.8 km/h 59 % 0.0 in /  0 mm
17:32 3.1 °F /  -16.1 °C -3.9 °F /  -19.9 °C 1013.1 in /  34303.6 hPa NNE 20.9 mph /  33.6 km/h 30.6 mph /  49.2 km/h 60 % 0.0 in /  0 mm
17:38 2.9 °F /  -16.2 °C -4.1 °F /  -20.1 °C 1013.1 in /  34303.6 hPa NE 25.9 mph /  41.7 km/h 30.6 mph /  49.2 km/h 60 % 0.0 in /  0 mm
17:44 2.9 °F /  -16.2 °C -4.1 °F /  -20.1 °C 1013.1 in /  34303.6 hPa NE 25.9 mph /  41.7 km/h 32.2 mph /  51.8 km/h 60 % 0.0 in /  0 mm
17:50 2.9 °F /  -16.2 °C -3.9 °F /  -19.9 °C 1013.4 in /  34313.7 hPa NE 7.9 mph /  12.7 km/h 25.7 mph /  41.4 km/h 61 % 0.0 in /  0 mm
17:56 2.8 °F /  -16.2 °C -4.0 °F /  -20 °C 1013.4 in /  34313.7 hPa NNE 13.0 mph /  20.9 km/h 25.7 mph /  41.4 km/h 61 % 0.0 in /  0 mm
18:02 2.7 °F /  -16.3 °C -4.3 °F /  -20.2 °C 1013.4 in /  34313.7 hPa NE 14.3 mph /  23 km/h 27.4 mph /  44.1 km/h 60 % 0.0 in /  0 mm
18:08 2.6 °F /  -16.3 °C -3.9 °F /  -19.9 °C 1013.4 in /  34313.7 hPa NNE 11.1 mph /  17.9 km/h 27.4 mph /  44.1 km/h 62 % 0.0 in /  0 mm
18:14 2.5 °F /  -16.4 °C -4.0 °F /  -20 °C 1013.4 in /  34313.7 hPa NE 7.9 mph /  12.7 km/h 27.4 mph /  44.1 km/h 62 % 0.0 in /  0 mm
18:20 2.4 °F /  -16.4 °C -4.1 °F /  -20.1 °C 1013.4 in /  34313.7 hPa North 13.0 mph /  20.9 km/h 29.0 mph /  46.7 km/h 62 % 0.0 in /  0 mm
18:26 2.4 °F /  -16.4 °C -4.1 °F /  -20.1 °C 1013.4 in /  34313.7 hPa North 11.1 mph /  17.9 km/h 27.4 mph /  44.1 km/h 62 % 0.0 in /  0 mm
18:32 2.3 °F /  -16.5 °C -4.2 °F /  -20.1 °C 1013.4 in /  34313.7 hPa NE 11.1 mph /  17.9 km/h 27.4 mph /  44.1 km/h 62 % 0.0 in /  0 mm
18:38 2.2 °F /  -16.6 °C -4.3 °F /  -20.2 °C 1013.4 in /  34313.7 hPa NE 20.9 mph /  33.6 km/h 27.4 mph /  44.1 km/h 62 % 0.0 in /  0 mm
18:44 2.1 °F /  -16.6 °C -4.2 °F /  -20.1 °C 1013.4 in /  34313.7 hPa NNE 11.1 mph /  17.9 km/h 25.7 mph /  41.4 km/h 63 % 0.0 in /  0 mm
18:50 2.0 °F /  -16.7 °C -4.3 °F /  -20.2 °C 1013.4 in /  34313.7 hPa NNW 13.0 mph /  20.9 km/h 24.1 mph /  38.8 km/h 63 % 0.0 in /  0 mm
18:56 2.0 °F /  -16.7 °C -4.5 °F /  -20.3 °C 1013.4 in /  34313.7 hPa NE 32.0 mph /  51.5 km/h 32.2 mph /  51.8 km/h 62 % 0.0 in /  0 mm
19:02 1.9 °F /  -16.7 °C -4.4 °F /  -20.2 °C 1013.8 in /  34327.3 hPa North 11.1 mph /  17.9 km/h 20.9 mph /  33.6 km/h 63 % 0.0 in /  0 mm
19:08 1.9 °F /  -16.7 °C -4.4 °F /  -20.2 °C 1013.8 in /  34327.3 hPa NNW 16.3 mph /  26.2 km/h 20.9 mph /  33.6 km/h 63 % 0.0 in /  0 mm
19:14 2.1 °F /  -16.6 °C -4.4 °F /  -20.2 °C 1013.8 in /  34327.3 hPa North 6.4 mph /  10.3 km/h 20.9 mph /  33.6 km/h 62 % 0.0 in /  0 mm
19:20 2.0 °F /  -16.7 °C -4.3 °F /  -20.2 °C 1013.8 in /  34327.3 hPa NNE 9.7 mph /  15.6 km/h 19.3 mph /  31.1 km/h 63 % 0.0 in /  0 mm
19:26 2.1 °F /  -16.6 °C -4.6 °F /  -20.3 °C 1013.8 in /  34327.3 hPa NNE 6.4 mph /  10.3 km/h 25.7 mph /  41.4 km/h 61 % 0.0 in /  0 mm
19:32 2.1 °F /  -16.6 °C -4.4 °F /  -20.2 °C 1013.8 in /  34327.3 hPa NE 20.9 mph /  33.6 km/h 20.9 mph /  33.6 km/h 62 % 0.0 in /  0 mm
19:38 2.1 °F /  -16.6 °C -4.4 °F /  -20.2 °C 1013.8 in /  34327.3 hPa NE 11.1 mph /  17.9 km/h 20.9 mph /  33.6 km/h 62 % 0.0 in /  0 mm
19:44 2.1 °F /  -16.6 °C -4.4 °F /  -20.2 °C 1013.8 in /  34327.3 hPa NNE 13.0 mph /  20.9 km/h 25.7 mph /  41.4 km/h 62 % 0.0 in /  0 mm
19:50 2.1 °F /  -16.6 °C -4.4 °F /  -20.2 °C 1013.8 in /  34327.3 hPa NE 9.7 mph /  15.6 km/h 20.9 mph /  33.6 km/h 62 % 0.0 in /  0 mm
19:56 2.1 °F /  -16.6 °C -4.6 °F /  -20.3 °C 1014.1 in /  34337.4 hPa North 7.9 mph /  12.7 km/h 29.0 mph /  46.7 km/h 61 % 0.0 in /  0 mm
20:02 2.1 °F /  -16.6 °C -4.6 °F /  -20.3 °C 1014.1 in /  34337.4 hPa NNE 24.1 mph /  38.8 km/h 30.6 mph /  49.2 km/h 61 % 0.0 in /  0 mm
20:08 2.1 °F /  -16.6 °C -4.6 °F /  -20.3 °C 1014.1 in /  34337.4 hPa NE 9.7 mph /  15.6 km/h 27.4 mph /  44.1 km/h 61 % 0.0 in /  0 mm
20:14 2.1 °F /  -16.6 °C -4.6 °F /  -20.3 °C 1014.1 in /  34337.4 hPa NE 13.0 mph /  20.9 km/h 22.5 mph /  36.2 km/h 61 % 0.0 in /  0 mm
20:20 2.0 °F /  -16.7 °C -4.5 °F /  -20.3 °C 1014.1 in /  34337.4 hPa NE 28.8 mph /  46.3 km/h 29.0 mph /  46.7 km/h 62 % 0.0 in /  0 mm
20:26 2.0 °F /  -16.7 °C -4.7 °F /  -20.4 °C 1013.8 in /  34327.3 hPa North 11.1 mph /  17.9 km/h 24.1 mph /  38.8 km/h 61 % 0.0 in /  0 mm
20:32 1.9 °F /  -16.7 °C -4.8 °F /  -20.4 °C 1013.8 in /  34327.3 hPa NNE 20.9 mph /  33.6 km/h 24.1 mph /  38.8 km/h 61 % 0.0 in /  0 mm
20:38 1.9 °F /  -16.7 °C -4.8 °F /  -20.4 °C 1013.8 in /  34327.3 hPa NNE 7.9 mph /  12.7 km/h 27.4 mph /  44.1 km/h 61 % 0.0 in /  0 mm
20:44 1.9 °F /  -16.7 °C -4.8 °F /  -20.4 °C 1013.8 in /  34327.3 hPa NNW 4.7 mph /  7.6 km/h 19.3 mph /  31.1 km/h 61 % 0.0 in /  0 mm
20:50 1.9 °F /  -16.7 °C -4.8 °F /  -20.4 °C 1013.8 in /  34327.3 hPa NNE 13.0 mph /  20.9 km/h 25.7 mph /  41.4 km/h 61 % 0.0 in /  0 mm
20:56 1.9 °F /  -16.7 °C -4.6 °F /  -20.3 °C 1013.8 in /  34327.3 hPa NNE 22.7 mph /  36.5 km/h 25.7 mph /  41.4 km/h 62 % 0.0 in /  0 mm
21:02 1.8 °F /  -16.8 °C -4.7 °F /  -20.4 °C 1013.8 in /  34327.3 hPa NNE 17.7 mph /  28.5 km/h 24.1 mph /  38.8 km/h 62 % 0.0 in /  0 mm
21:08 1.8 °F /  -16.8 °C -4.9 °F /  -20.5 °C 1013.8 in /  34327.3 hPa ENE 19.5 mph /  31.4 km/h 25.7 mph /  41.4 km/h 61 % 0.0 in /  0 mm
21:14 1.8 °F /  -16.8 °C -4.9 °F /  -20.5 °C 1013.8 in /  34327.3 hPa NE 16.3 mph /  26.2 km/h 24.1 mph /  38.8 km/h 61 % 0.0 in /  0 mm
21:20 1.8 °F /  -16.8 °C -4.7 °F /  -20.4 °C 1013.8 in /  34327.3 hPa NE 19.5 mph /  31.4 km/h 19.5 mph /  31.4 km/h 62 % 0.0 in /  0 mm
21:26 1.8 °F /  -16.8 °C -4.9 °F /  -20.5 °C 1013.8 in /  34327.3 hPa ENE 14.3 mph /  23 km/h 22.5 mph /  36.2 km/h 61 % 0.0 in /  0 mm
21:32 1.8 °F /  -16.8 °C -5.1 °F /  -20.6 °C 1013.8 in /  34327.3 hPa NE 16.3 mph /  26.2 km/h 32.2 mph /  51.8 km/h 60 % 0.0 in /  0 mm
21:38 1.8 °F /  -16.8 °C -5.4 °F /  -20.8 °C 1013.8 in /  34327.3 hPa NNE 16.3 mph /  26.2 km/h 29.0 mph /  46.7 km/h 59 % 0.0 in /  0 mm
21:44 1.8 °F /  -16.8 °C -5.1 °F /  -20.6 °C 1013.8 in /  34327.3 hPa NE 7.9 mph /  12.7 km/h 19.3 mph /  31.1 km/h 60 % 0.0 in /  0 mm
21:50 1.7 °F /  -16.8 °C -5.2 °F /  -20.7 °C 1013.8 in /  34327.3 hPa NE 14.3 mph /  23 km/h 22.5 mph /  36.2 km/h 60 % 0.0 in /  0 mm
21:56 1.8 °F /  -16.8 °C -5.4 °F /  -20.8 °C 1013.8 in /  34327.3 hPa NE 13.0 mph /  20.9 km/h 27.4 mph /  44.1 km/h 59 % 0.0 in /  0 mm
22:02 1.8 °F /  -16.8 °C -5.4 °F /  -20.8 °C 1013.8 in /  34327.3 hPa NNE 19.5 mph /  31.4 km/h 24.1 mph /  38.8 km/h 59 % 0.0 in /  0 mm
22:08 1.7 °F /  -16.8 °C -5.5 °F /  -20.8 °C 1013.8 in /  34327.3 hPa NNE 9.7 mph /  15.6 km/h 27.4 mph /  44.1 km/h 59 % 0.0 in /  0 mm
22:14 1.7 °F /  -16.8 °C -5.5 °F /  -20.8 °C 1013.8 in /  34327.3 hPa NE 20.9 mph /  33.6 km/h 29.0 mph /  46.7 km/h 59 % 0.0 in /  0 mm
22:20 1.7 °F /  -16.8 °C -5.5 °F /  -20.8 °C 1013.8 in /  34327.3 hPa NNE 19.5 mph /  31.4 km/h 25.7 mph /  41.4 km/h 59 % 0.0 in /  0 mm
22:26 1.7 °F /  -16.8 °C -5.2 °F /  -20.7 °C 1013.8 in /  34327.3 hPa NE 9.7 mph /  15.6 km/h 24.1 mph /  38.8 km/h 60 % 0.0 in /  0 mm
22:32 1.7 °F /  -16.8 °C -5.2 °F /  -20.7 °C 1013.8 in /  34327.3 hPa NNE 24.1 mph /  38.8 km/h 32.2 mph /  51.8 km/h 60 % 0.0 in /  0 mm
22:38 1.7 °F /  -16.8 °C -5.5 °F /  -20.8 °C 1013.8 in /  34327.3 hPa NE 11.1 mph /  17.9 km/h 30.6 mph /  49.2 km/h 59 % 0.0 in /  0 mm
22:44 1.7 °F /  -16.8 °C -5.5 °F /  -20.8 °C 1013.8 in /  34327.3 hPa NE 20.9 mph /  33.6 km/h 20.9 mph /  33.6 km/h 59 % 0.0 in /  0 mm
22:50 1.6 °F /  -16.9 °C -5.3 °F /  -20.7 °C 1013.8 in /  34327.3 hPa NE 20.9 mph /  33.6 km/h 32.2 mph /  51.8 km/h 60 % 0.0 in /  0 mm
22:56 1.6 °F /  -16.9 °C -5.6 °F /  -20.9 °C 1013.8 in /  34327.3 hPa NE 16.3 mph /  26.2 km/h 24.1 mph /  38.8 km/h 59 % 0.0 in /  0 mm
23:02 1.6 °F /  -16.9 °C -5.6 °F /  -20.9 °C 1013.8 in /  34327.3 hPa NE 25.9 mph /  41.7 km/h 29.0 mph /  46.7 km/h 59 % 0.0 in /  0 mm
23:08 1.6 °F /  -16.9 °C -5.8 °F /  -21 °C 1013.8 in /  34327.3 hPa NNE 17.7 mph /  28.5 km/h 27.4 mph /  44.1 km/h 58 % 0.0 in /  0 mm
23:14 1.6 °F /  -16.9 °C -5.6 °F /  -20.9 °C 1013.8 in /  34327.3 hPa NE 19.5 mph /  31.4 km/h 24.1 mph /  38.8 km/h 59 % 0.0 in /  0 mm
23:20 1.6 °F /  -16.9 °C -5.6 °F /  -20.9 °C 1013.8 in /  34327.3 hPa SSW 3.2 mph /  5.1 km/h 25.7 mph /  41.4 km/h 59 % 0.0 in /  0 mm
23:26 1.5 °F /  -16.9 °C -5.4 °F /  -20.8 °C 1013.4 in /  34313.7 hPa ENE 13.0 mph /  20.9 km/h 19.3 mph /  31.1 km/h 60 % 0.0 in /  0 mm
23:38 1.4 °F /  -17 °C -5.3 °F /  -20.7 °C 1013.8 in /  34327.3 hPa NE 19.5 mph /  31.4 km/h 20.9 mph /  33.6 km/h 61 % 0.0 in /  0 mm
23:44 1.3 °F /  -17.1 °C -5.2 °F /  -20.7 °C 1013.4 in /  34313.7 hPa North 14.3 mph /  23 km/h 19.3 mph /  31.1 km/h 62 % 0.0 in /  0 mm
23:50 1.3 °F /  -17.1 °C -5.4 °F /  -20.8 °C 1013.4 in /  34313.7 hPa ENE 14.3 mph /  23 km/h 29.0 mph /  46.7 km/h 61 % 0.0 in /  0 mm
23:56 1.2 °F /  -17.1 °C -5.1 °F /  -20.6 °C 1013.4 in /  34313.7 hPa NNE 17.7 mph /  28.5 km/h 20.9 mph /  33.6 km/h 63 % 0.0 in /  0 mm
Meteo18
Compliments of Weather Underground - 4 mb

Script developed by  Jim McMurry - jmcmurry@mwt.net Adapted for the template by  Wim van der Kuil - Leuven-Template.eu

You find our weather info also at:

European Weather Network

Weather Underground

Equipment we use:

Weather-station
Davis Vue

Weather-program
Meteobridge

Weather-server
Raspberry PI 2 B+

Provider
1 and 1

Davis Vue

Meteobridge

Raspberry PI 2 B+

1 and 1